sensor_id;sensor_type;location;lat;lon;timestamp;pressure;altitude;pressure_sealevel;temperature;humidity
48035;BME280;33812;46.480;6.834;2023-03-19T00:01:07;93559.19;;;20.60;34.97
48035;BME280;33812;46.480;6.834;2023-03-19T00:05:10;93558.22;;;20.80;35.42
48035;BME280;33812;46.480;6.834;2023-03-19T00:09:12;93562.53;;;20.81;35.40
48035;BME280;33812;46.480;6.834;2023-03-19T00:13:15;93561.88;;;20.76;35.22
48035;BME280;33812;46.480;6.834;2023-03-19T00:17:18;93564.19;;;20.78;35.14
48035;BME280;33812;46.480;6.834;2023-03-19T00:21:19;93565.63;;;20.83;35.18
48035;BME280;33812;46.480;6.834;2023-03-19T00:25:21;93575.91;;;20.82;35.15
48035;BME280;33812;46.480;6.834;2023-03-19T00:29:25;93578.44;;;20.76;34.76
48035;BME280;33812;46.480;6.834;2023-03-19T00:33:26;93570.81;;;20.68;34.86
48035;BME280;33812;46.480;6.834;2023-03-19T00:37:28;93580.09;;;20.74;34.97
48035;BME280;33812;46.480;6.834;2023-03-19T00:41:30;93583.53;;;20.78;35.95
48035;BME280;33812;46.480;6.834;2023-03-19T00:45:34;93580.88;;;20.74;34.45
48035;BME280;33812;46.480;6.834;2023-03-19T00:49:37;93586.28;;;20.78;35.05
48035;BME280;33812;46.480;6.834;2023-03-19T00:53:40;93594.09;;;20.66;35.38
48035;BME280;33812;46.480;6.834;2023-03-19T00:57:42;93592.91;;;20.68;35.09
48035;BME280;33812;46.480;6.834;2023-03-19T01:01:46;93591.59;;;20.72;35.04
48035;BME280;33812;46.480;6.834;2023-03-19T01:05:49;93593.47;;;20.62;35.40
48035;BME280;33812;46.480;6.834;2023-03-19T01:09:51;93597.66;;;20.67;34.96
48035;BME280;33812;46.480;6.834;2023-03-19T01:13:52;93597.78;;;20.76;35.38
48035;BME280;33812;46.480;6.834;2023-03-19T01:17:56;93603.41;;;20.73;35.13
48035;BME280;33812;46.480;6.834;2023-03-19T01:21:57;93591.03;;;20.64;35.26
48035;BME280;33812;46.480;6.834;2023-03-19T01:25:59;93590.59;;;20.66;35.11
48035;BME280;33812;46.480;6.834;2023-03-19T01:30:01;93600.00;;;20.39;34.62
48035;BME280;33812;46.480;6.834;2023-03-19T01:34:04;93590.00;;;20.58;35.43
48035;BME280;33812;46.480;6.834;2023-03-19T01:38:06;93590.00;;;20.45;35.24
48035;BME280;33812;46.480;6.834;2023-03-19T01:42:08;93585.03;;;20.53;35.61
48035;BME280;33812;46.480;6.834;2023-03-19T01:46:15;93581.19;;;20.63;35.70
48035;BME280;33812;46.480;6.834;2023-03-19T01:50:27;93577.53;;;20.53;35.62
48035;BME280;33812;46.480;6.834;2023-03-19T01:54:30;93570.13;;;20.50;35.35
48035;BME280;33812;46.480;6.834;2023-03-19T01:58:33;93569.25;;;20.53;35.75
48035;BME280;33812;46.480;6.834;2023-03-19T02:02:35;93556.44;;;20.60;35.69
48035;BME280;33812;46.480;6.834;2023-03-19T02:06:41;93567.81;;;20.62;35.50
48035;BME280;33812;46.480;6.834;2023-03-19T02:10:45;93561.84;;;20.50;35.38
48035;BME280;33812;46.480;6.834;2023-03-19T02:14:47;93561.63;;;20.58;35.38
48035;BME280;33812;46.480;6.834;2023-03-19T02:18:49;93550.31;;;20.26;35.37
48035;BME280;33812;46.480;6.834;2023-03-19T02:23:01;93559.53;;;20.49;35.71
48035;BME280;33812;46.480;6.834;2023-03-19T02:27:07;93557.53;;;20.49;35.40
48035;BME280;33812;46.480;6.834;2023-03-19T02:31:11;93556.97;;;20.54;35.16
48035;BME280;33812;46.480;6.834;2023-03-19T02:35:13;93560.97;;;20.53;35.24
48035;BME280;33812;46.480;6.834;2023-03-19T02:39:22;93563.50;;;20.48;34.68
48035;BME280;33812;46.480;6.834;2023-03-19T02:43:29;93559.28;;;20.43;34.66
48035;BME280;33812;46.480;6.834;2023-03-19T02:47:32;93573.75;;;20.47;35.03
48035;BME280;33812;46.480;6.834;2023-03-19T02:51:33;93562.22;;;20.23;35.33
48035;BME280;33812;46.480;6.834;2023-03-19T02:55:37;93572.72;;;20.28;34.86
48035;BME280;33812;46.480;6.834;2023-03-19T02:59:41;93573.25;;;20.23;35.31
48035;BME280;33812;46.480;6.834;2023-03-19T03:03:43;93585.84;;;20.24;35.71
48035;BME280;33812;46.480;6.834;2023-03-19T03:07:45;93580.56;;;20.29;35.25
48035;BME280;33812;46.480;6.834;2023-03-19T03:11:47;93581.16;;;20.08;34.96
48035;BME280;33812;46.480;6.834;2023-03-19T03:15:50;93582.09;;;20.01;35.14
48035;BME280;33812;46.480;6.834;2023-03-19T03:19:52;93579.53;;;20.10;35.21
48035;BME280;33812;46.480;6.834;2023-03-19T03:23:54;93578.72;;;19.47;36.08
48035;BME280;33812;46.480;6.834;2023-03-19T03:27:56;93578.47;;;19.24;36.46
48035;BME280;33812;46.480;6.834;2023-03-19T03:32:00;93572.53;;;19.42;36.06
48035;BME280;33812;46.480;6.834;2023-03-19T03:36:02;93575.63;;;19.44;36.47
48035;BME280;33812;46.480;6.834;2023-03-19T03:40:05;93576.66;;;19.97;35.89
48035;BME280;33812;46.480;6.834;2023-03-19T03:44:07;93579.06;;;20.12;35.30
48035;BME280;33812;46.480;6.834;2023-03-19T03:48:11;93574.41;;;20.09;35.35
48035;BME280;33812;46.480;6.834;2023-03-19T03:52:12;93575.97;;;20.10;35.27
48035;BME280;33812;46.480;6.834;2023-03-19T03:56:14;93586.44;;;19.68;35.32
48035;BME280;33812;46.480;6.834;2023-03-19T04:00:18;93580.88;;;20.02;35.69
48035;BME280;33812;46.480;6.834;2023-03-19T04:04:21;93583.56;;;20.05;35.16
48035;BME280;33812;46.480;6.834;2023-03-19T04:08:23;93588.56;;;19.94;35.15
48035;BME280;33812;46.480;6.834;2023-03-19T04:12:25;93590.66;;;20.07;35.26
48035;BME280;33812;46.480;6.834;2023-03-19T04:16:26;93590.66;;;20.07;34.95
48035;BME280;33812;46.480;6.834;2023-03-19T04:20:30;93591.41;;;20.07;35.24
48035;BME280;33812;46.480;6.834;2023-03-19T04:24:32;93596.09;;;20.23;34.78
48035;BME280;33812;46.480;6.834;2023-03-19T04:28:34;93594.22;;;20.20;35.07
48035;BME280;33812;46.480;6.834;2023-03-19T04:32:36;93595.44;;;20.19;34.59
48035;BME280;33812;46.480;6.834;2023-03-19T04:36:40;93591.03;;;20.22;34.74
48035;BME280;33812;46.480;6.834;2023-03-19T04:40:43;93590.84;;;20.29;34.91
48035;BME280;33812;46.480;6.834;2023-03-19T04:44:45;93595.94;;;20.14;34.63
48035;BME280;33812;46.480;6.834;2023-03-19T04:48:48;93594.94;;;20.08;34.88
48035;BME280;33812;46.480;6.834;2023-03-19T04:52:52;93587.44;;;20.08;34.41
48035;BME280;33812;46.480;6.834;2023-03-19T04:56:55;93585.13;;;19.90;34.84
48035;BME280;33812;46.480;6.834;2023-03-19T05:00:56;93589.34;;;19.95;35.32
48035;BME280;33812;46.480;6.834;2023-03-19T05:04:58;93592.88;;;20.12;35.17
48035;BME280;33812;46.480;6.834;2023-03-19T05:09:04;93592.53;;;20.10;34.79
48035;BME280;33812;46.480;6.834;2023-03-19T05:13:07;93592.97;;;20.08;35.09
48035;BME280;33812;46.480;6.834;2023-03-19T05:17:09;93596.06;;;20.10;34.83
48035;BME280;33812;46.480;6.834;2023-03-19T05:21:12;93603.91;;;20.12;34.94
48035;BME280;33812;46.480;6.834;2023-03-19T05:25:16;93606.31;;;20.10;34.53
48035;BME280;33812;46.480;6.834;2023-03-19T05:29:18;93598.91;;;19.90;34.48
48035;BME280;33812;46.480;6.834;2023-03-19T05:33:21;93607.97;;;19.90;34.74
48035;BME280;33812;46.480;6.834;2023-03-19T05:37:23;93607.19;;;19.90;35.27
48035;BME280;33812;46.480;6.834;2023-03-19T05:41:26;93609.69;;;20.01;34.78
48035;BME280;33812;46.480;6.834;2023-03-19T05:45:28;93612.00;;;20.02;34.75
48035;BME280;33812;46.480;6.834;2023-03-19T05:49:30;93613.91;;;20.05;34.61
48035;BME280;33812;46.480;6.834;2023-03-19T05:53:32;93612.00;;;20.02;34.58
48035;BME280;33812;46.480;6.834;2023-03-19T05:57:35;93617.94;;;20.01;34.72
48035;BME280;33812;46.480;6.834;2023-03-19T06:01:37;93611.06;;;19.92;34.39
48035;BME280;33812;46.480;6.834;2023-03-19T06:05:39;93611.78;;;19.63;35.20
48035;BME280;33812;46.480;6.834;2023-03-19T06:09:41;93624.69;;;19.83;34.81
48035;BME280;33812;46.480;6.834;2023-03-19T06:13:44;93618.47;;;19.96;34.43
48035;BME280;33812;46.480;6.834;2023-03-19T06:17:46;93617.22;;;19.67;34.40
48035;BME280;33812;46.480;6.834;2023-03-19T06:21:48;93628.41;;;19.76;34.88
48035;BME280;33812;46.480;6.834;2023-03-19T06:25:50;93621.84;;;19.87;34.54
48035;BME280;33812;46.480;6.834;2023-03-19T06:29:53;93631.34;;;19.86;34.56
48035;BME280;33812;46.480;6.834;2023-03-19T06:33:55;93632.09;;;19.86;34.30
48035;BME280;33812;46.480;6.834;2023-03-19T06:37:57;93636.09;;;19.85;34.04
48035;BME280;33812;46.480;6.834;2023-03-19T06:41:59;93636.44;;;19.87;34.74
48035;BME280;33812;46.480;6.834;2023-03-19T06:46:02;93636.88;;;19.86;34.55
48035;BME280;33812;46.480;6.834;2023-03-19T06:50:05;93643.47;;;19.21;32.59
48035;BME280;33812;46.480;6.834;2023-03-19T06:54:07;93647.28;;;19.44;33.85
48035;BME280;33812;46.480;6.834;2023-03-19T06:58:09;93642.03;;;19.50;34.06
48035;BME280;33812;46.480;6.834;2023-03-19T07:02:12;93645.47;;;19.54;34.24
48035;BME280;33812;46.480;6.834;2023-03-19T07:06:15;93652.81;;;19.61;34.43
48035;BME280;33812;46.480;6.834;2023-03-19T07:10:18;93654.09;;;19.56;34.33
48035;BME280;33812;46.480;6.834;2023-03-19T07:14:20;93654.78;;;19.77;34.46
48035;BME280;33812;46.480;6.834;2023-03-19T07:18:23;93659.09;;;19.62;34.59
48035;BME280;33812;46.480;6.834;2023-03-19T07:22:25;93662.22;;;19.80;34.66
48035;BME280;33812;46.480;6.834;2023-03-19T07:26:27;93665.97;;;19.53;34.54
48035;BME280;33812;46.480;6.834;2023-03-19T07:30:29;93678.63;;;19.84;34.87
48035;BME280;33812;46.480;6.834;2023-03-19T07:34:32;93684.84;;;19.88;34.58
48035;BME280;33812;46.480;6.834;2023-03-19T07:38:34;93685.72;;;19.52;35.30
48035;BME280;33812;46.480;6.834;2023-03-19T07:42:42;93702.06;;;19.42;35.32
48035;BME280;33812;46.480;6.834;2023-03-19T07:46:45;93701.25;;;19.25;35.85
48035;BME280;33812;46.480;6.834;2023-03-19T07:50:50;93699.94;;;19.50;36.31
48035;BME280;33812;46.480;6.834;2023-03-19T07:54:52;93706.25;;;19.30;37.32
48035;BME280;33812;46.480;6.834;2023-03-19T07:58:54;93709.88;;;19.44;37.95
48035;BME280;33812;46.480;6.834;2023-03-19T08:02:55;93707.78;;;19.15;38.42
48035;BME280;33812;46.480;6.834;2023-03-19T08:07:09;93709.16;;;19.23;38.52
48035;BME280;33812;46.480;6.834;2023-03-19T08:11:12;93713.34;;;19.31;38.52
48035;BME280;33812;46.480;6.834;2023-03-19T08:15:17;93713.28;;;19.52;39.79
48035;BME280;33812;46.480;6.834;2023-03-19T08:19:19;93721.31;;;19.63;38.60
48035;BME280;33812;46.480;6.834;2023-03-19T08:23:32;93725.00;;;19.73;39.62
48035;BME280;33812;46.480;6.834;2023-03-19T08:27:35;93714.56;;;19.47;38.98
48035;BME280;33812;46.480;6.834;2023-03-19T08:31:38;93713.06;;;19.26;39.98
48035;BME280;33812;46.480;6.834;2023-03-19T08:35:40;93727.84;;;19.52;39.63
48035;BME280;33812;46.480;6.834;2023-03-19T08:39:43;93730.53;;;19.56;39.75
48035;BME280;33812;46.480;6.834;2023-03-19T08:43:46;93734.75;;;19.61;39.16
48035;BME280;33812;46.480;6.834;2023-03-19T08:47:48;93729.66;;;19.22;36.08
48035;BME280;33812;46.480;6.834;2023-03-19T08:51:50;93733.81;;;18.49;36.83
48035;BME280;33812;46.480;6.834;2023-03-19T08:55:56;93740.09;;;19.31;35.66
48035;BME280;33812;46.480;6.834;2023-03-19T08:59:59;93737.38;;;19.48;35.67
48035;BME280;33812;46.480;6.834;2023-03-19T09:04:00;93742.56;;;19.62;35.29
48035;BME280;33812;46.480;6.834;2023-03-19T09:08:03;93742.16;;;19.64;35.31
48035;BME280;33812;46.480;6.834;2023-03-19T09:12:07;93737.22;;;19.55;36.00
48035;BME280;33812;46.480;6.834;2023-03-19T09:16:10;93737.66;;;19.53;36.05
48035;BME280;33812;46.480;6.834;2023-03-19T09:20:12;93738.81;;;19.36;36.56
48035;BME280;33812;46.480;6.834;2023-03-19T09:24:14;93745.56;;;19.51;36.48
48035;BME280;33812;46.480;6.834;2023-03-19T09:28:18;93734.03;;;19.56;36.80
48035;BME280;33812;46.480;6.834;2023-03-19T09:32:20;93740.53;;;19.66;36.90
48035;BME280;33812;46.480;6.834;2023-03-19T09:36:23;93735.25;;;19.55;36.97
48035;BME280;33812;46.480;6.834;2023-03-19T09:40:29;93745.78;;;19.77;36.90
48035;BME280;33812;46.480;6.834;2023-03-19T09:44:36;93740.25;;;19.77;36.77
48035;BME280;33812;46.480;6.834;2023-03-19T09:48:39;93734.84;;;19.90;36.44
48035;BME280;33812;46.480;6.834;2023-03-19T09:52:46;93735.97;;;19.93;36.02
48035;BME280;33812;46.480;6.834;2023-03-19T09:56:48;93721.31;;;19.96;36.31
48035;BME280;33812;46.480;6.834;2023-03-19T10:00:53;93724.84;;;19.97;36.33
48035;BME280;33812;46.480;6.834;2023-03-19T10:05:02;93726.31;;;20.01;35.81
48035;BME280;33812;46.480;6.834;2023-03-19T10:09:23;93727.72;;;20.10;36.27
48035;BME280;33812;46.480;6.834;2023-03-19T10:13:46;93726.16;;;20.09;36.00
48035;BME280;33812;46.480;6.834;2023-03-19T10:17:57;93725.09;;;20.02;35.58
48035;BME280;33812;46.480;6.834;2023-03-19T10:22:03;93721.13;;;20.03;35.86
48035;BME280;33812;46.480;6.834;2023-03-19T10:26:11;93713.22;;;20.05;36.70
48035;BME280;33812;46.480;6.834;2023-03-19T10:30:18;93726.94;;;20.09;36.91
48035;BME280;33812;46.480;6.834;2023-03-19T10:34:28;93727.72;;;20.10;37.09
48035;BME280;33812;46.480;6.834;2023-03-19T10:38:32;93730.03;;;20.11;36.67
48035;BME280;33812;46.480;6.834;2023-03-19T10:42:48;93735.03;;;20.16;37.00
48035;BME280;33812;46.480;6.834;2023-03-19T10:46:57;93731.41;;;20.20;37.38
48035;BME280;33812;46.480;6.834;2023-03-19T10:51:03;93737.78;;;20.16;37.50
48035;BME280;33812;46.480;6.834;2023-03-19T10:55:13;93741.94;;;20.08;37.94
48035;BME280;33812;46.480;6.834;2023-03-19T10:59:24;93748.03;;;19.99;37.77
48035;BME280;33812;46.480;6.834;2023-03-19T11:03:29;93739.22;;;19.88;38.04
48035;BME280;33812;46.480;6.834;2023-03-19T11:07:34;93745.19;;;20.03;38.40
48035;BME280;33812;46.480;6.834;2023-03-19T11:11:42;93748.38;;;20.01;38.33
48035;BME280;33812;46.480;6.834;2023-03-19T11:15:46;93750.97;;;19.92;38.63
48035;BME280;33812;46.480;6.834;2023-03-19T11:19:51;93752.41;;;19.97;38.22
48035;BME280;33812;46.480;6.834;2023-03-19T11:24:00;93745.44;;;19.75;39.39
48035;BME280;33812;46.480;6.834;2023-03-19T11:28:07;93753.63;;;19.79;39.46
48035;BME280;33812;46.480;6.834;2023-03-19T11:36:39;93754.69;;;19.48;40.32
48035;BME280;33812;46.480;6.834;2023-03-19T11:40:53;93755.13;;;19.47;39.77
48035;BME280;33812;46.480;6.834;2023-03-19T11:45:09;93753.25;;;19.60;39.33
48035;BME280;33812;46.480;6.834;2023-03-19T11:53:59;93760.00;;;19.76;42.26
48035;BME280;33812;46.480;6.834;2023-03-19T11:58:23;93763.81;;;19.45;42.21
48035;BME280;33812;46.480;6.834;2023-03-19T12:07:24;93753.09;;;19.30;43.03
48035;BME280;33812;46.480;6.834;2023-03-19T12:11:35;93757.88;;;19.47;42.87
48035;BME280;33812;46.480;6.834;2023-03-19T12:15:51;93754.03;;;19.24;43.07
48035;BME280;33812;46.480;6.834;2023-03-19T12:20:05;93746.06;;;19.29;42.74
48035;BME280;33812;46.480;6.834;2023-03-19T12:24:20;93748.81;;;19.29;42.83
48035;BME280;33812;46.480;6.834;2023-03-19T12:28:29;93751.47;;;19.33;42.50
48035;BME280;33812;46.480;6.834;2023-03-19T12:32:42;93753.81;;;19.14;42.45
48035;BME280;33812;46.480;6.834;2023-03-19T12:36:54;93745.63;;;19.31;42.27
48035;BME280;33812;46.480;6.834;2023-03-19T12:40:59;93744.97;;;19.23;41.82
48035;BME280;33812;46.480;6.834;2023-03-19T12:45:21;93741.41;;;19.26;41.67
48035;BME280;33812;46.480;6.834;2023-03-19T12:49:29;93741.41;;;19.26;41.20
48035;BME280;33812;46.480;6.834;2023-03-19T12:53:42;93737.72;;;19.33;41.84
48035;BME280;33812;46.480;6.834;2023-03-19T12:57:47;93736.56;;;19.30;42.49
48035;BME280;33812;46.480;6.834;2023-03-19T13:01:56;93724.25;;;19.35;42.02
48035;BME280;33812;46.480;6.834;2023-03-19T13:06:05;93725.75;;;19.40;42.98
48035;BME280;33812;46.480;6.834;2023-03-19T13:10:13;93718.88;;;19.48;41.81
48035;BME280;33812;46.480;6.834;2023-03-19T13:14:21;93721.19;;;19.50;41.85
48035;BME280;33812;46.480;6.834;2023-03-19T13:18:33;93715.94;;;19.55;41.89
48035;BME280;33812;46.480;6.834;2023-03-19T13:22:40;93716.91;;;19.65;42.14
48035;BME280;33812;46.480;6.834;2023-03-19T13:26:44;93721.75;;;19.78;41.29
48035;BME280;33812;46.480;6.834;2023-03-19T13:30:58;93707.38;;;19.70;41.58
48035;BME280;33812;46.480;6.834;2023-03-19T13:35:11;93704.94;;;19.72;41.51
48035;BME280;33812;46.480;6.834;2023-03-19T13:39:18;93704.69;;;19.83;40.87
48035;BME280;33812;46.480;6.834;2023-03-19T13:43:23;93701.56;;;19.81;41.04
48035;BME280;33812;46.480;6.834;2023-03-19T13:47:40;93694.34;;;19.87;41.18
48035;BME280;33812;46.480;6.834;2023-03-19T13:51:43;93694.78;;;19.86;40.92
48035;BME280;33812;46.480;6.834;2023-03-19T13:55:56;93695.97;;;19.85;40.56
48035;BME280;33812;46.480;6.834;2023-03-19T14:04:48;93693.66;;;19.83;40.84
48035;BME280;33812;46.480;6.834;2023-03-19T14:08:52;93686.16;;;19.84;40.73
48035;BME280;33812;46.480;6.834;2023-03-19T14:13:04;93684.59;;;19.83;40.74
48035;BME280;33812;46.480;6.834;2023-03-19T14:17:13;93689.41;;;19.95;40.56
48035;BME280;33812;46.480;6.834;2023-03-19T14:21:20;93683.72;;;20.02;40.66
48035;BME280;33812;46.480;6.834;2023-03-19T14:26:04;93686.47;;;20.02;41.50
48035;BME280;33812;46.480;6.834;2023-03-19T14:30:17;93686.22;;;19.97;41.03
48035;BME280;33812;46.480;6.834;2023-03-19T14:34:25;93672.78;;;19.99;40.88
48035;BME280;33812;46.480;6.834;2023-03-19T14:38:34;93678.94;;;20.07;40.83
48035;BME280;33812;46.480;6.834;2023-03-19T14:42:49;93670.97;;;20.09;41.16
48035;BME280;33812;46.480;6.834;2023-03-19T14:47:04;93676.31;;;20.16;39.94
48035;BME280;33812;46.480;6.834;2023-03-19T14:55:48;93667.00;;;19.93;40.57
48035;BME280;33812;46.480;6.834;2023-03-19T14:59:50;93660.88;;;20.02;40.21
48035;BME280;33812;46.480;6.834;2023-03-19T15:03:56;93672.34;;;20.00;40.66
48035;BME280;33812;46.480;6.834;2023-03-19T15:08:02;93668.72;;;20.03;40.70
48035;BME280;33812;46.480;6.834;2023-03-19T15:12:29;93675.13;;;20.17;40.72
48035;BME280;33812;46.480;6.834;2023-03-19T15:16:41;93669.09;;;20.05;40.48
48035;BME280;33812;46.480;6.834;2023-03-19T15:20:50;93675.56;;;20.15;41.02
48035;BME280;33812;46.480;6.834;2023-03-19T15:25:04;93673.47;;;20.03;40.99
48035;BME280;33812;46.480;6.834;2023-03-19T15:29:06;93683.72;;;20.02;40.57
48035;BME280;33812;46.480;6.834;2023-03-19T15:33:18;93678.28;;;19.99;41.20
48035;BME280;33812;46.480;6.834;2023-03-19T15:37:25;93680.97;;;20.02;41.35
48035;BME280;33812;46.480;6.834;2023-03-19T15:41:28;93690.91;;;20.00;40.68
48035;BME280;33812;46.480;6.834;2023-03-19T15:45:32;93693.38;;;20.11;40.83
48035;BME280;33812;46.480;6.834;2023-03-19T15:49:38;93692.09;;;20.15;40.40
48035;BME280;33812;46.480;6.834;2023-03-19T15:53:42;93689.44;;;20.12;41.15
48035;BME280;33812;46.480;6.834;2023-03-19T15:57:46;93699.94;;;20.17;41.36
48035;BME280;33812;46.480;6.834;2023-03-19T16:01:49;93706.84;;;20.09;41.85
48035;BME280;33812;46.480;6.834;2023-03-19T16:05:58;93707.75;;;20.02;42.30
48035;BME280;33812;46.480;6.834;2023-03-19T16:10:28;93707.88;;;20.15;42.02
48035;BME280;33812;46.480;6.834;2023-03-19T16:14:37;93704.00;;;20.12;41.69
48035;BME280;33812;46.480;6.834;2023-03-19T16:18:41;93711.84;;;20.14;41.97
48035;BME280;33812;46.480;6.834;2023-03-19T16:22:51;93715.47;;;19.94;42.33
48035;BME280;33812;46.480;6.834;2023-03-19T16:26:56;93716.31;;;19.91;42.56
48035;BME280;33812;46.480;6.834;2023-03-19T16:30:58;93693.81;;;19.92;43.21
48035;BME280;33812;46.480;6.834;2023-03-19T16:35:04;93712.00;;;19.73;43.44
48035;BME280;33812;46.480;6.834;2023-03-19T16:39:23;93708.13;;;19.71;42.83
48035;BME280;33812;46.480;6.834;2023-03-19T16:43:32;93718.56;;;19.63;42.45
48035;BME280;33812;46.480;6.834;2023-03-19T16:47:37;93720.44;;;19.83;42.13
48035;BME280;33812;46.480;6.834;2023-03-19T16:51:40;93718.56;;;19.79;42.09
48035;BME280;33812;46.480;6.834;2023-03-19T16:55:50;93715.88;;;19.76;42.50
48035;BME280;33812;46.480;6.834;2023-03-19T16:59:56;93720.84;;;19.48;43.07
48035;BME280;33812;46.480;6.834;2023-03-19T17:03:58;93718.59;;;19.42;42.94
48035;BME280;33812;46.480;6.834;2023-03-19T17:08:03;93724.88;;;19.43;42.96
48035;BME280;33812;46.480;6.834;2023-03-19T17:12:06;93729.94;;;19.07;43.32
48035;BME280;33812;46.480;6.834;2023-03-19T17:16:14;93736.25;;;19.45;42.84
48035;BME280;33812;46.480;6.834;2023-03-19T17:20:19;93739.41;;;19.80;42.05
48035;BME280;33812;46.480;6.834;2023-03-19T17:24:30;93737.78;;;19.83;41.84
48035;BME280;33812;46.480;6.834;2023-03-19T17:28:34;93742.69;;;19.92;41.98
48035;BME280;33812;46.480;6.834;2023-03-19T17:32:39;93746.78;;;19.67;42.50
48035;BME280;33812;46.480;6.834;2023-03-19T17:36:47;93748.72;;;19.70;42.57
48035;BME280;33812;46.480;6.834;2023-03-19T17:40:50;93743.59;;;19.68;42.58
48035;BME280;33812;46.480;6.834;2023-03-19T17:44:53;93755.47;;;19.86;42.19
48035;BME280;33812;46.480;6.834;2023-03-19T17:49:14;93764.25;;;19.80;41.42
48035;BME280;33812;46.480;6.834;2023-03-19T17:53:18;93768.09;;;19.83;40.86
48035;BME280;33812;46.480;6.834;2023-03-19T17:57:20;93771.50;;;19.91;41.82
48035;BME280;33812;46.480;6.834;2023-03-19T18:01:24;93775.00;;;19.91;41.97
48035;BME280;33812;46.480;6.834;2023-03-19T18:05:30;93768.47;;;19.85;41.34
48035;BME280;33812;46.480;6.834;2023-03-19T18:09:38;93784.22;;;19.85;41.56
48035;BME280;33812;46.480;6.834;2023-03-19T18:13:42;93789.66;;;19.88;41.25
48035;BME280;33812;46.480;6.834;2023-03-19T18:17:49;93793.34;;;19.81;40.86
48035;BME280;33812;46.480;6.834;2023-03-19T18:21:54;93797.22;;;19.84;40.79
48035;BME280;33812;46.480;6.834;2023-03-19T18:25:57;93806.78;;;19.79;40.96
48035;BME280;33812;46.480;6.834;2023-03-19T18:30:03;93810.22;;;19.67;41.26
48035;BME280;33812;46.480;6.834;2023-03-19T18:34:19;93804.28;;;19.68;41.39
48035;BME280;33812;46.480;6.834;2023-03-19T18:38:24;93812.28;;;19.63;42.25
48035;BME280;33812;46.480;6.834;2023-03-19T18:42:27;93810.78;;;19.78;42.96
48035;BME280;33812;46.480;6.834;2023-03-19T18:46:36;93823.53;;;19.89;43.42
48035;BME280;33812;46.480;6.834;2023-03-19T18:50:39;93832.69;;;19.86;42.95
48035;BME280;33812;46.480;6.834;2023-03-19T18:54:44;93829.50;;;19.87;42.79
48035;BME280;33812;46.480;6.834;2023-03-19T18:58:46;93838.09;;;19.89;43.28
48035;BME280;33812;46.480;6.834;2023-03-19T19:02:49;93851.88;;;19.89;43.02
48035;BME280;33812;46.480;6.834;2023-03-19T19:06:52;93863.28;;;19.91;44.21
48035;BME280;33812;46.480;6.834;2023-03-19T19:10:59;93861.28;;;19.92;43.84
48035;BME280;33812;46.480;6.834;2023-03-19T19:15:03;93868.72;;;19.95;44.38
48035;BME280;33812;46.480;6.834;2023-03-19T19:19:13;93866.03;;;19.91;43.85
48035;BME280;33812;46.480;6.834;2023-03-19T19:23:17;93871.28;;;19.86;43.41
48035;BME280;33812;46.480;6.834;2023-03-19T19:27:23;93866.97;;;19.85;43.26
48035;BME280;33812;46.480;6.834;2023-03-19T19:31:28;93875.38;;;19.77;42.97
48035;BME280;33812;46.480;6.834;2023-03-19T19:35:30;93878.78;;;19.85;42.66
48035;BME280;33812;46.480;6.834;2023-03-19T19:39:32;93885.09;;;19.86;42.32
48035;BME280;33812;46.480;6.834;2023-03-19T19:43:35;93885.97;;;19.79;42.33
48035;BME280;33812;46.480;6.834;2023-03-19T19:47:37;93902.69;;;19.51;42.64
48035;BME280;33812;46.480;6.834;2023-03-19T19:51:39;93895.00;;;19.63;42.57
48035;BME280;33812;46.480;6.834;2023-03-19T19:55:41;93903.31;;;19.18;42.54
48035;BME280;33812;46.480;6.834;2023-03-19T19:59:46;93910.19;;;19.51;42.46
48035;BME280;33812;46.480;6.834;2023-03-19T20:03:48;93915.72;;;19.51;41.80
48035;BME280;33812;46.480;6.834;2023-03-19T20:07:52;93919.22;;;19.51;42.17
48035;BME280;33812;46.480;6.834;2023-03-19T20:11:55;93919.22;;;19.51;41.85
48035;BME280;33812;46.480;6.834;2023-03-19T20:15:59;93920.88;;;19.49;42.85
48035;BME280;33812;46.480;6.834;2023-03-19T20:20:01;93922.28;;;19.37;45.73
48035;BME280;33812;46.480;6.834;2023-03-19T20:24:04;93930.81;;;19.42;46.57
48035;BME280;33812;46.480;6.834;2023-03-19T20:28:06;93931.81;;;19.73;46.49
48035;BME280;33812;46.480;6.834;2023-03-19T20:32:25;93945.91;;;19.78;47.05
48035;BME280;33812;46.480;6.834;2023-03-19T20:36:27;93949.09;;;19.77;47.22
48035;BME280;33812;46.480;6.834;2023-03-19T20:40:31;93948.72;;;19.75;47.30
48035;BME280;33812;46.480;6.834;2023-03-19T20:44:33;93953.88;;;19.73;47.56
48035;BME280;33812;46.480;6.834;2023-03-19T20:48:36;93949.50;;;19.75;47.78
48035;BME280;33812;46.480;6.834;2023-03-19T20:52:38;93950.84;;;19.67;47.57
48035;BME280;33812;46.480;6.834;2023-03-19T20:56:40;93949.16;;;19.73;46.40
48035;BME280;33812;46.480;6.834;2023-03-19T21:00:45;93955.34;;;19.77;46.70
48035;BME280;33812;46.480;6.834;2023-03-19T21:04:49;93957.00;;;19.75;45.63
48035;BME280;33812;46.480;6.834;2023-03-19T21:08:52;93956.00;;;19.65;45.80
48035;BME280;33812;46.480;6.834;2023-03-19T21:12:57;93962.16;;;19.52;45.34
48035;BME280;33812;46.480;6.834;2023-03-19T21:16:59;93960.19;;;19.73;45.19
48035;BME280;33812;46.480;6.834;2023-03-19T21:21:02;93957.84;;;19.72;45.42
48035;BME280;33812;46.480;6.834;2023-03-19T21:25:08;93954.63;;;19.32;44.77
48035;BME280;33812;46.480;6.834;2023-03-19T21:29:19;93962.78;;;19.40;45.42
48035;BME280;33812;46.480;6.834;2023-03-19T21:33:23;93962.72;;;19.43;45.40
48035;BME280;33812;46.480;6.834;2023-03-19T21:37:27;93964.13;;;19.04;45.68
48035;BME280;33812;46.480;6.834;2023-03-19T21:41:30;93968.88;;;19.03;45.59
48035;BME280;33812;46.480;6.834;2023-03-19T21:45:35;93973.78;;;19.16;45.76
48035;BME280;33812;46.480;6.834;2023-03-19T21:49:37;93972.06;;;19.26;45.35
48035;BME280;33812;46.480;6.834;2023-03-19T21:53:40;93973.59;;;19.51;45.17
48035;BME280;33812;46.480;6.834;2023-03-19T21:57:42;93978.63;;;19.56;44.62
48035;BME280;33812;46.480;6.834;2023-03-19T22:01:44;93974.22;;;19.59;44.60